sensor_id;sensor_type;location;lat;lon;timestamp;temperature;humidity
20233;DHT22;37438;55.674;13.074;2022-09-19T00:02:53;8.00;99.90
20233;DHT22;37438;55.674;13.074;2022-09-19T00:05:58;8.00;99.90
20233;DHT22;37438;55.674;13.074;2022-09-19T00:09:04;7.90;99.90
20233;DHT22;37438;55.674;13.074;2022-09-19T00:12:09;7.90;99.90
20233;DHT22;37438;55.674;13.074;2022-09-19T00:15:13;7.90;99.90
20233;DHT22;37438;55.674;13.074;2022-09-19T00:18:18;7.90;99.90
20233;DHT22;37438;55.674;13.074;2022-09-19T00:21:25;7.80;99.90
20233;DHT22;37438;55.674;13.074;2022-09-19T00:24:29;7.90;99.90
20233;DHT22;37438;55.674;13.074;2022-09-19T00:27:54;7.80;99.90
20233;DHT22;37438;55.674;13.074;2022-09-19T00:31:00;7.80;99.90
20233;DHT22;37438;55.674;13.074;2022-09-19T00:34:05;7.80;99.90
20233;DHT22;37438;55.674;13.074;2022-09-19T00:37:11;7.70;99.90
20233;DHT22;37438;55.674;13.074;2022-09-19T00:40:16;7.80;99.90
20233;DHT22;37438;55.674;13.074;2022-09-19T00:43:21;7.70;99.90
20233;DHT22;37438;55.674;13.074;2022-09-19T00:46:28;7.80;99.90
20233;DHT22;37438;55.674;13.074;2022-09-19T00:49:36;7.80;99.90
20233;DHT22;37438;55.674;13.074;2022-09-19T00:52:44;7.80;99.90
20233;DHT22;37438;55.674;13.074;2022-09-19T00:55:50;7.70;99.90
20233;DHT22;37438;55.674;13.074;2022-09-19T00:58:57;7.70;99.90
20233;DHT22;37438;55.674;13.074;2022-09-19T01:02:04;7.70;99.90
20233;DHT22;37438;55.674;13.074;2022-09-19T01:05:10;7.70;99.90
20233;DHT22;37438;55.674;13.074;2022-09-19T01:08:18;7.70;99.90
20233;DHT22;37438;55.674;13.074;2022-09-19T01:15:17;7.60;99.90
20233;DHT22;37438;55.674;13.074;2022-09-19T01:18:28;7.60;99.90
20233;DHT22;37438;55.674;13.074;2022-09-19T01:21:37;7.60;99.90
20233;DHT22;37438;55.674;13.074;2022-09-19T01:25:10;7.60;99.90
20233;DHT22;37438;55.674;13.074;2022-09-19T01:28:24;7.60;99.90
20233;DHT22;37438;55.674;13.074;2022-09-19T01:31:37;7.50;99.90
20233;DHT22;37438;55.674;13.074;2022-09-19T01:34:46;7.50;99.90
20233;DHT22;37438;55.674;13.074;2022-09-19T01:38:00;7.50;99.90
20233;DHT22;37438;55.674;13.074;2022-09-19T01:41:07;7.40;99.90
20233;DHT22;37438;55.674;13.074;2022-09-19T01:44:17;7.40;99.90
20233;DHT22;37438;55.674;13.074;2022-09-19T01:47:43;7.40;99.90
20233;DHT22;37438;55.674;13.074;2022-09-19T01:51:10;7.50;99.90
20233;DHT22;37438;55.674;13.074;2022-09-19T01:58:06;7.50;99.90
20233;DHT22;37438;55.674;13.074;2022-09-19T02:05:14;7.50;99.90
20233;DHT22;37438;55.674;13.074;2022-09-19T02:11:42;7.50;99.90
20233;DHT22;37438;55.674;13.074;2022-09-19T02:14:50;7.40;99.90
20233;DHT22;37438;55.674;13.074;2022-09-19T02:18:13;7.40;99.90
20233;DHT22;37438;55.674;13.074;2022-09-19T02:21:26;7.40;99.90
20233;DHT22;37438;55.674;13.074;2022-09-19T02:24:35;7.40;99.90
20233;DHT22;37438;55.674;13.074;2022-09-19T02:27:45;7.40;99.90
20233;DHT22;37438;55.674;13.074;2022-09-19T02:30:56;7.40;99.90
20233;DHT22;37438;55.674;13.074;2022-09-19T02:34:04;7.50;99.90
20233;DHT22;37438;55.674;13.074;2022-09-19T02:40:44;7.50;99.90
20233;DHT22;37438;55.674;13.074;2022-09-19T02:44:11;7.50;99.90
20233;DHT22;37438;55.674;13.074;2022-09-19T02:47:25;7.50;99.90
20233;DHT22;37438;55.674;13.074;2022-09-19T02:50:39;7.50;99.90
20233;DHT22;37438;55.674;13.074;2022-09-19T02:53:51;7.50;99.90
20233;DHT22;37438;55.674;13.074;2022-09-19T02:57:03;7.50;99.90
20233;DHT22;37438;55.674;13.074;2022-09-19T03:00:12;7.50;99.90
20233;DHT22;37438;55.674;13.074;2022-09-19T03:03:54;7.50;99.90
20233;DHT22;37438;55.674;13.074;2022-09-19T03:07:19;7.50;99.90
20233;DHT22;37438;55.674;13.074;2022-09-19T03:10:38;7.50;99.90
20233;DHT22;37438;55.674;13.074;2022-09-19T03:14:02;7.50;99.90
20233;DHT22;37438;55.674;13.074;2022-09-19T03:17:07;7.40;99.90
20233;DHT22;37438;55.674;13.074;2022-09-19T03:20:13;7.30;99.90
20233;DHT22;37438;55.674;13.074;2022-09-19T03:23:23;7.30;99.90
20233;DHT22;37438;55.674;13.074;2022-09-19T03:26:32;7.20;99.90
20233;DHT22;37438;55.674;13.074;2022-09-19T03:29:40;7.20;99.90
20233;DHT22;37438;55.674;13.074;2022-09-19T03:32:44;7.20;99.90
20233;DHT22;37438;55.674;13.074;2022-09-19T03:35:49;7.20;99.90
20233;DHT22;37438;55.674;13.074;2022-09-19T03:38:56;7.20;99.90
20233;DHT22;37438;55.674;13.074;2022-09-19T03:42:11;7.10;99.90
20233;DHT22;37438;55.674;13.074;2022-09-19T03:45:16;7.20;99.90
20233;DHT22;37438;55.674;13.074;2022-09-19T03:48:20;7.20;99.90
20233;DHT22;37438;55.674;13.074;2022-09-19T03:51:25;7.10;99.90
20233;DHT22;37438;55.674;13.074;2022-09-19T03:54:30;7.20;99.90
20233;DHT22;37438;55.674;13.074;2022-09-19T03:57:35;7.20;99.90
20233;DHT22;37438;55.674;13.074;2022-09-19T04:00:39;7.20;99.90
20233;DHT22;37438;55.674;13.074;2022-09-19T04:03:46;7.30;99.90
20233;DHT22;37438;55.674;13.074;2022-09-19T04:06:50;7.30;99.90
20233;DHT22;37438;55.674;13.074;2022-09-19T04:10:00;7.30;99.90
20233;DHT22;37438;55.674;13.074;2022-09-19T04:13:06;7.40;99.90
20233;DHT22;37438;55.674;13.074;2022-09-19T04:16:10;7.40;99.90
20233;DHT22;37438;55.674;13.074;2022-09-19T04:19:15;7.40;99.90
20233;DHT22;37438;55.674;13.074;2022-09-19T04:22:26;7.40;99.90
20233;DHT22;37438;55.674;13.074;2022-09-19T04:25:53;7.40;99.90
20233;DHT22;37438;55.674;13.074;2022-09-19T04:29:08;7.40;99.90
20233;DHT22;37438;55.674;13.074;2022-09-19T04:32:13;7.50;99.90
20233;DHT22;37438;55.674;13.074;2022-09-19T04:35:20;7.60;99.90
20233;DHT22;37438;55.674;13.074;2022-09-19T04:38:25;7.60;99.90
20233;DHT22;37438;55.674;13.074;2022-09-19T04:41:33;7.70;99.90
20233;DHT22;37438;55.674;13.074;2022-09-19T04:44:38;7.70;99.90
20233;DHT22;37438;55.674;13.074;2022-09-19T04:47:50;7.70;99.90
20233;DHT22;37438;55.674;13.074;2022-09-19T04:50:54;7.70;99.90
20233;DHT22;37438;55.674;13.074;2022-09-19T04:54:00;7.80;99.90
20233;DHT22;37438;55.674;13.074;2022-09-19T04:57:06;7.80;99.90
20233;DHT22;37438;55.674;13.074;2022-09-19T05:00:13;7.90;99.90
20233;DHT22;37438;55.674;13.074;2022-09-19T05:03:22;7.90;99.90
20233;DHT22;37438;55.674;13.074;2022-09-19T05:06:30;7.90;99.90
20233;DHT22;37438;55.674;13.074;2022-09-19T05:09:35;8.00;99.90
20233;DHT22;37438;55.674;13.074;2022-09-19T05:12:42;8.10;99.90
20233;DHT22;37438;55.674;13.074;2022-09-19T05:15:46;8.20;99.90
20233;DHT22;37438;55.674;13.074;2022-09-19T05:18:51;8.20;99.90
20233;DHT22;37438;55.674;13.074;2022-09-19T05:21:56;8.40;99.90
20233;DHT22;37438;55.674;13.074;2022-09-19T05:25:00;8.40;99.90
20233;DHT22;37438;55.674;13.074;2022-09-19T05:28:09;8.40;99.90
20233;DHT22;37438;55.674;13.074;2022-09-19T05:31:14;8.40;99.90
20233;DHT22;37438;55.674;13.074;2022-09-19T05:34:24;8.70;99.90
20233;DHT22;37438;55.674;13.074;2022-09-19T05:37:29;8.60;99.90
20233;DHT22;37438;55.674;13.074;2022-09-19T05:40:59;8.80;99.90
20233;DHT22;37438;55.674;13.074;2022-09-19T05:44:16;8.80;99.90
20233;DHT22;37438;55.674;13.074;2022-09-19T05:47:26;8.90;99.90
20233;DHT22;37438;55.674;13.074;2022-09-19T05:50:31;9.20;99.90
20233;DHT22;37438;55.674;13.074;2022-09-19T05:53:35;9.30;99.90
20233;DHT22;37438;55.674;13.074;2022-09-19T05:57:17;9.40;99.90
20233;DHT22;37438;55.674;13.074;2022-09-19T06:00:26;9.50;99.90
20233;DHT22;37438;55.674;13.074;2022-09-19T06:03:31;9.60;99.90
20233;DHT22;37438;55.674;13.074;2022-09-19T06:06:39;9.70;99.90
20233;DHT22;37438;55.674;13.074;2022-09-19T06:09:44;9.90;99.90
20233;DHT22;37438;55.674;13.074;2022-09-19T06:12:52;10.00;99.90
20233;DHT22;37438;55.674;13.074;2022-09-19T06:15:59;10.10;99.90
20233;DHT22;37438;55.674;13.074;2022-09-19T06:19:28;10.20;99.90
20233;DHT22;37438;55.674;13.074;2022-09-19T06:22:48;10.40;99.90
20233;DHT22;37438;55.674;13.074;2022-09-19T06:25:56;10.70;99.90
20233;DHT22;37438;55.674;13.074;2022-09-19T06:29:00;11.10;99.90
20233;DHT22;37438;55.674;13.074;2022-09-19T06:32:05;11.20;99.90
20233;DHT22;37438;55.674;13.074;2022-09-19T06:35:15;11.70;99.90
20233;DHT22;37438;55.674;13.074;2022-09-19T06:38:21;11.70;99.90
20233;DHT22;37438;55.674;13.074;2022-09-19T06:41:26;11.80;99.90
20233;DHT22;37438;55.674;13.074;2022-09-19T06:44:50;11.90;99.90
20233;DHT22;37438;55.674;13.074;2022-09-19T06:48:16;11.90;99.90
20233;DHT22;37438;55.674;13.074;2022-09-19T06:51:41;11.90;99.90
20233;DHT22;37438;55.674;13.074;2022-09-19T06:54:46;12.00;99.90
20233;DHT22;37438;55.674;13.074;2022-09-19T06:58:01;12.10;99.90
20233;DHT22;37438;55.674;13.074;2022-09-19T07:01:05;12.20;99.90
20233;DHT22;37438;55.674;13.074;2022-09-19T07:04:12;12.50;99.90
20233;DHT22;37438;55.674;13.074;2022-09-19T07:07:34;12.60;99.90
20233;DHT22;37438;55.674;13.074;2022-09-19T07:10:39;13.00;99.90
20233;DHT22;37438;55.674;13.074;2022-09-19T07:13:43;13.40;99.90
20233;DHT22;37438;55.674;13.074;2022-09-19T07:16:48;13.50;99.90
20233;DHT22;37438;55.674;13.074;2022-09-19T07:19:53;13.70;99.90
20233;DHT22;37438;55.674;13.074;2022-09-19T07:23:17;14.40;99.90
20233;DHT22;37438;55.674;13.074;2022-09-19T07:27:01;14.80;99.90
20233;DHT22;37438;55.674;13.074;2022-09-19T07:30:07;16.10;99.90
20233;DHT22;37438;55.674;13.074;2022-09-19T07:33:13;16.80;99.90
20233;DHT22;37438;55.674;13.074;2022-09-19T07:36:18;17.30;99.90
20233;DHT22;37438;55.674;13.074;2022-09-19T07:39:26;17.30;99.90
20233;DHT22;37438;55.674;13.074;2022-09-19T07:43:10;16.90;99.90
20233;DHT22;37438;55.674;13.074;2022-09-19T07:46:24;16.30;99.90
20233;DHT22;37438;55.674;13.074;2022-09-19T07:50:01;16.30;99.90
20233;DHT22;37438;55.674;13.074;2022-09-19T07:53:20;16.30;99.90
20233;DHT22;37438;55.674;13.074;2022-09-19T07:56:27;16.20;99.90
20233;DHT22;37438;55.674;13.074;2022-09-19T07:59:31;16.10;99.90
20233;DHT22;37438;55.674;13.074;2022-09-19T08:02:38;16.10;99.90
20233;DHT22;37438;55.674;13.074;2022-09-19T08:05:48;16.10;99.90
20233;DHT22;37438;55.674;13.074;2022-09-19T08:08:53;15.70;99.90
20233;DHT22;37438;55.674;13.074;2022-09-19T08:12:27;15.60;99.90
20233;DHT22;37438;55.674;13.074;2022-09-19T08:15:50;16.50;99.90
20233;DHT22;37438;55.674;13.074;2022-09-19T08:18:54;17.60;99.90
20233;DHT22;37438;55.674;13.074;2022-09-19T08:21:59;18.50;99.90
20233;DHT22;37438;55.674;13.074;2022-09-19T08:25:09;19.00;99.90
20233;DHT22;37438;55.674;13.074;2022-09-19T08:28:15;19.50;99.90
20233;DHT22;37438;55.674;13.074;2022-09-19T08:31:21;19.90;99.90
20233;DHT22;37438;55.674;13.074;2022-09-19T08:34:26;19.80;99.90
20233;DHT22;37438;55.674;13.074;2022-09-19T08:37:30;19.70;99.90
20233;DHT22;37438;55.674;13.074;2022-09-19T08:43:58;19.80;99.90
20233;DHT22;37438;55.674;13.074;2022-09-19T08:47:11;20.50;99.90
20233;DHT22;37438;55.674;13.074;2022-09-19T08:50:27;21.10;99.90
20233;DHT22;37438;55.674;13.074;2022-09-19T08:53:42;20.90;99.90
20233;DHT22;37438;55.674;13.074;2022-09-19T08:56:48;21.10;99.90
20233;DHT22;37438;55.674;13.074;2022-09-19T08:59:53;20.90;99.90
20233;DHT22;37438;55.674;13.074;2022-09-19T09:03:06;21.30;99.90
20233;DHT22;37438;55.674;13.074;2022-09-19T09:06:29;21.20;99.90
20233;DHT22;37438;55.674;13.074;2022-09-19T09:09:48;20.40;99.90
20233;DHT22;37438;55.674;13.074;2022-09-19T09:13:00;20.30;99.90
20233;DHT22;37438;55.674;13.074;2022-09-19T09:19:54;19.40;99.90
20233;DHT22;37438;55.674;13.074;2022-09-19T09:23:20;20.40;99.90
20233;DHT22;37438;55.674;13.074;2022-09-19T09:26:33;20.90;99.90
20233;DHT22;37438;55.674;13.074;2022-09-19T09:29:47;21.30;99.90
20233;DHT22;37438;55.674;13.074;2022-09-19T09:33:10;22.10;99.90
20233;DHT22;37438;55.674;13.074;2022-09-19T09:36:19;21.50;99.90
20233;DHT22;37438;55.674;13.074;2022-09-19T09:39:40;21.60;99.90
20233;DHT22;37438;55.674;13.074;2022-09-19T09:43:07;21.40;99.90
20233;DHT22;37438;55.674;13.074;2022-09-19T09:46:23;20.90;99.90
20233;DHT22;37438;55.674;13.074;2022-09-19T09:49:31;22.00;99.90
20233;DHT22;37438;55.674;13.074;2022-09-19T09:56:00;23.30;97.90
20233;DHT22;37438;55.674;13.074;2022-09-19T09:59:47;22.70;98.70
20233;DHT22;37438;55.674;13.074;2022-09-19T10:03:22;22.00;99.30
20233;DHT22;37438;55.674;13.074;2022-09-19T10:10:32;21.40;99.90
20233;DHT22;37438;55.674;13.074;2022-09-19T10:13:42;21.80;99.90
20233;DHT22;37438;55.674;13.074;2022-09-19T10:16:51;22.20;99.40
20233;DHT22;37438;55.674;13.074;2022-09-19T10:20:07;21.70;99.90
20233;DHT22;37438;55.674;13.074;2022-09-19T10:23:22;21.00;99.90
20233;DHT22;37438;55.674;13.074;2022-09-19T10:26:29;20.70;99.90
20233;DHT22;37438;55.674;13.074;2022-09-19T10:32:55;21.90;99.90
20233;DHT22;37438;55.674;13.074;2022-09-19T10:36:24;21.60;99.90
20233;DHT22;37438;55.674;13.074;2022-09-19T10:39:43;21.30;99.90
20233;DHT22;37438;55.674;13.074;2022-09-19T10:42:50;22.60;98.80
20233;DHT22;37438;55.674;13.074;2022-09-19T10:46:05;22.00;99.10
20233;DHT22;37438;55.674;13.074;2022-09-19T10:49:21;22.70;97.90
20233;DHT22;37438;55.674;13.074;2022-09-19T10:52:29;22.60;97.20
20233;DHT22;37438;55.674;13.074;2022-09-19T10:56:01;21.70;97.50
20233;DHT22;37438;55.674;13.074;2022-09-19T11:02:32;22.10;95.10
20233;DHT22;37438;55.674;13.074;2022-09-19T11:05:38;21.70;96.20
20233;DHT22;37438;55.674;13.074;2022-09-19T11:08:50;21.70;96.40
20233;DHT22;37438;55.674;13.074;2022-09-19T11:12:14;21.70;95.50
20233;DHT22;37438;55.674;13.074;2022-09-19T11:15:20;21.90;96.60
20233;DHT22;37438;55.674;13.074;2022-09-19T11:33:07;22.10;96.10
20233;DHT22;37438;55.674;13.074;2022-09-19T11:37:06;22.40;96.30
20233;DHT22;37438;55.674;13.074;2022-09-19T12:11:51;22.70;93.60
20233;DHT22;37438;55.674;13.074;2022-09-19T12:18:50;22.20;95.10
20233;DHT22;37438;55.674;13.074;2022-09-19T12:22:05;21.90;94.90
20233;DHT22;37438;55.674;13.074;2022-09-19T12:25:27;22.40;93.90
20233;DHT22;37438;55.674;13.074;2022-09-19T12:28:39;21.80;94.20
20233;DHT22;37438;55.674;13.074;2022-09-19T12:31:56;21.90;94.30
20233;DHT22;37438;55.674;13.074;2022-09-19T12:35:33;22.20;94.40
20233;DHT22;37438;55.674;13.074;2022-09-19T12:38:53;21.10;96.10
20233;DHT22;37438;55.674;13.074;2022-09-19T12:42:30;22.10;94.10
20233;DHT22;37438;55.674;13.074;2022-09-19T12:45:46;21.40;94.40
20233;DHT22;37438;55.674;13.074;2022-09-19T12:49:04;21.30;94.60
20233;DHT22;37438;55.674;13.074;2022-09-19T12:52:24;21.80;94.00
20233;DHT22;37438;55.674;13.074;2022-09-19T12:55:37;21.70;94.00
20233;DHT22;37438;55.674;13.074;2022-09-19T12:58:57;21.80;94.30
20233;DHT22;37438;55.674;13.074;2022-09-19T13:08:55;21.60;94.70
20233;DHT22;37438;55.674;13.074;2022-09-19T13:12:17;21.20;94.80
20233;DHT22;37438;55.674;13.074;2022-09-19T13:15:31;22.10;94.30
20233;DHT22;37438;55.674;13.074;2022-09-19T13:18:42;22.10;94.00
20233;DHT22;37438;55.674;13.074;2022-09-19T13:22:06;21.80;95.50
20233;DHT22;37438;55.674;13.074;2022-09-19T13:25:25;21.60;94.70
20233;DHT22;37438;55.674;13.074;2022-09-19T13:28:44;21.50;95.00
20233;DHT22;37438;55.674;13.074;2022-09-19T13:39:10;22.10;93.80
20233;DHT22;37438;55.674;13.074;2022-09-19T13:41:54;21.20;94.00
20233;DHT22;37438;55.674;13.074;2022-09-19T13:48:39;21.20;93.50
20233;DHT22;37438;55.674;13.074;2022-09-19T13:51:56;21.30;93.00
20233;DHT22;37438;55.674;13.074;2022-09-19T13:58:34;21.90;93.60
20233;DHT22;37438;55.674;13.074;2022-09-19T14:01:41;21.50;93.90
20233;DHT22;37438;55.674;13.074;2022-09-19T14:05:03;20.40;95.40
20233;DHT22;37438;55.674;13.074;2022-09-19T14:08:31;21.30;94.00
20233;DHT22;37438;55.674;13.074;2022-09-19T14:11:58;21.70;92.80
20233;DHT22;37438;55.674;13.074;2022-09-19T14:15:27;21.50;92.60
20233;DHT22;37438;55.674;13.074;2022-09-19T14:18:46;20.60;93.90
20233;DHT22;37438;55.674;13.074;2022-09-19T14:21:53;20.20;94.30
20233;DHT22;37438;55.674;13.074;2022-09-19T14:48:51;19.30;97.60
20233;DHT22;37438;55.674;13.074;2022-09-19T14:52:04;20.30;96.40
20233;DHT22;37438;55.674;13.074;2022-09-19T14:55:14;20.30;96.00
20233;DHT22;37438;55.674;13.074;2022-09-19T14:58:30;20.30;97.10
20233;DHT22;37438;55.674;13.074;2022-09-19T15:01:35;20.80;95.90
20233;DHT22;37438;55.674;13.074;2022-09-19T15:04:43;20.50;96.10
20233;DHT22;37438;55.674;13.074;2022-09-19T15:07:47;20.90;95.50
20233;DHT22;37438;55.674;13.074;2022-09-19T15:11:00;20.30;95.60
20233;DHT22;37438;55.674;13.074;2022-09-19T15:14:11;21.10;94.60
20233;DHT22;37438;55.674;13.074;2022-09-19T15:17:22;21.30;94.50
20233;DHT22;37438;55.674;13.074;2022-09-19T15:20:28;21.40;95.80
20233;DHT22;37438;55.674;13.074;2022-09-19T15:23:38;22.70;94.00
20233;DHT22;37438;55.674;13.074;2022-09-19T15:26:46;22.40;93.20
20233;DHT22;37438;55.674;13.074;2022-09-19T15:29:52;22.80;93.40
20233;DHT22;37438;55.674;13.074;2022-09-19T15:36:06;23.00;93.40
20233;DHT22;37438;55.674;13.074;2022-09-19T15:39:16;22.20;94.20
20233;DHT22;37438;55.674;13.074;2022-09-19T15:42:21;22.30;94.00
20233;DHT22;37438;55.674;13.074;2022-09-19T15:45:38;22.30;94.00
20233;DHT22;37438;55.674;13.074;2022-09-19T15:48:48;22.60;93.30
20233;DHT22;37438;55.674;13.074;2022-09-19T15:52:06;23.20;93.10
20233;DHT22;37438;55.674;13.074;2022-09-19T15:55:22;23.50;90.30
20233;DHT22;37438;55.674;13.074;2022-09-19T15:58:36;24.10;88.80
20233;DHT22;37438;55.674;13.074;2022-09-19T16:01:57;23.40;88.90
20233;DHT22;37438;55.674;13.074;2022-09-19T16:05:19;23.20;88.30
20233;DHT22;37438;55.674;13.074;2022-09-19T16:08:28;24.10;88.40
20233;DHT22;37438;55.674;13.074;2022-09-19T16:11:51;25.20;84.60
20233;DHT22;37438;55.674;13.074;2022-09-19T16:14:58;24.60;85.70
20233;DHT22;37438;55.674;13.074;2022-09-19T16:18:11;24.60;84.40
20233;DHT22;37438;55.674;13.074;2022-09-19T16:21:18;25.50;82.10
20233;DHT22;37438;55.674;13.074;2022-09-19T16:24:25;24.90;81.90
20233;DHT22;37438;55.674;13.074;2022-09-19T16:27:30;23.50;83.50
20233;DHT22;37438;55.674;13.074;2022-09-19T16:30:52;22.00;86.80
20233;DHT22;37438;55.674;13.074;2022-09-19T16:34:02;19.90;91.10
20233;DHT22;37438;55.674;13.074;2022-09-19T16:37:29;18.00;97.40
20233;DHT22;37438;55.674;13.074;2022-09-19T16:40:34;16.90;99.90
20233;DHT22;37438;55.674;13.074;2022-09-19T16:43:41;16.30;99.90
20233;DHT22;37438;55.674;13.074;2022-09-19T16:46:47;15.80;99.90
20233;DHT22;37438;55.674;13.074;2022-09-19T16:49:53;15.30;99.90
20233;DHT22;37438;55.674;13.074;2022-09-19T16:52:57;15.00;99.90
20233;DHT22;37438;55.674;13.074;2022-09-19T16:56:01;14.70;99.90
20233;DHT22;37438;55.674;13.074;2022-09-19T16:59:17;14.60;99.90
20233;DHT22;37438;55.674;13.074;2022-09-19T17:02:29;14.40;99.90
20233;DHT22;37438;55.674;13.074;2022-09-19T17:05:34;14.30;99.90
20233;DHT22;37438;55.674;13.074;2022-09-19T17:08:40;14.10;99.90
20233;DHT22;37438;55.674;13.074;2022-09-19T17:11:48;13.80;99.90
20233;DHT22;37438;55.674;13.074;2022-09-19T17:14:54;13.70;99.90
20233;DHT22;37438;55.674;13.074;2022-09-19T17:17:58;13.60;99.90
20233;DHT22;37438;55.674;13.074;2022-09-19T17:21:02;13.40;99.90
20233;DHT22;37438;55.674;13.074;2022-09-19T17:24:09;13.30;99.90
20233;DHT22;37438;55.674;13.074;2022-09-19T17:27:15;13.20;99.90
20233;DHT22;37438;55.674;13.074;2022-09-19T17:30:20;13.00;99.90
20233;DHT22;37438;55.674;13.074;2022-09-19T17:33:25;13.00;99.90
20233;DHT22;37438;55.674;13.074;2022-09-19T17:36:29;12.90;99.90
20233;DHT22;37438;55.674;13.074;2022-09-19T17:39:34;12.80;99.90
20233;DHT22;37438;55.674;13.074;2022-09-19T17:42:39;12.70;99.90
20233;DHT22;37438;55.674;13.074;2022-09-19T17:45:45;12.60;99.90
20233;DHT22;37438;55.674;13.074;2022-09-19T17:48:51;12.60;99.90
20233;DHT22;37438;55.674;13.074;2022-09-19T17:51:55;12.50;99.90
20233;DHT22;37438;55.674;13.074;2022-09-19T17:55:00;12.40;99.90
20233;DHT22;37438;55.674;13.074;2022-09-19T17:58:04;12.40;99.90
20233;DHT22;37438;55.674;13.074;2022-09-19T18:01:12;12.30;99.90
20233;DHT22;37438;55.674;13.074;2022-09-19T18:04:34;12.20;99.90
20233;DHT22;37438;55.674;13.074;2022-09-19T18:07:39;12.20;99.90
20233;DHT22;37438;55.674;13.074;2022-09-19T18:10:43;12.10;99.90
20233;DHT22;37438;55.674;13.074;2022-09-19T18:13:48;12.00;99.90
20233;DHT22;37438;55.674;13.074;2022-09-19T18:16:54;12.00;99.90
20233;DHT22;37438;55.674;13.074;2022-09-19T18:19:58;12.00;99.90
20233;DHT22;37438;55.674;13.074;2022-09-19T18:23:04;11.90;99.90
20233;DHT22;37438;55.674;13.074;2022-09-19T18:26:15;11.90;99.90
20233;DHT22;37438;55.674;13.074;2022-09-19T18:29:22;11.80;99.90
20233;DHT22;37438;55.674;13.074;2022-09-19T18:32:27;11.80;99.90
20233;DHT22;37438;55.674;13.074;2022-09-19T18:35:32;11.70;99.90
20233;DHT22;37438;55.674;13.074;2022-09-19T18:38:36;11.70;99.90
20233;DHT22;37438;55.674;13.074;2022-09-19T18:41:41;11.50;99.90
20233;DHT22;37438;55.674;13.074;2022-09-19T18:44:45;11.50;99.90
20233;DHT22;37438;55.674;13.074;2022-09-19T18:47:49;11.50;99.90
20233;DHT22;37438;55.674;13.074;2022-09-19T18:50:54;11.40;99.90
20233;DHT22;37438;55.674;13.074;2022-09-19T18:53:58;11.40;99.90
20233;DHT22;37438;55.674;13.074;2022-09-19T18:57:03;11.30;99.90
20233;DHT22;37438;55.674;13.074;2022-09-19T19:00:08;11.30;99.90
20233;DHT22;37438;55.674;13.074;2022-09-19T19:03:14;11.20;99.90
20233;DHT22;37438;55.674;13.074;2022-09-19T19:06:19;11.20;99.90
20233;DHT22;37438;55.674;13.074;2022-09-19T19:09:25;11.10;99.90
20233;DHT22;37438;55.674;13.074;2022-09-19T19:12:29;11.00;99.90
20233;DHT22;37438;55.674;13.074;2022-09-19T19:15:46;11.00;99.90
20233;DHT22;37438;55.674;13.074;2022-09-19T19:18:53;10.90;99.90
20233;DHT22;37438;55.674;13.074;2022-09-19T19:21:57;10.90;99.90
20233;DHT22;37438;55.674;13.074;2022-09-19T19:25:02;10.90;99.90
20233;DHT22;37438;55.674;13.074;2022-09-19T19:28:06;10.90;99.90
20233;DHT22;37438;55.674;13.074;2022-09-19T19:31:11;10.90;99.90
20233;DHT22;37438;55.674;13.074;2022-09-19T19:34:15;10.80;99.90
20233;DHT22;37438;55.674;13.074;2022-09-19T19:37:20;10.80;99.90
20233;DHT22;37438;55.674;13.074;2022-09-19T19:40:24;10.80;99.90
20233;DHT22;37438;55.674;13.074;2022-09-19T19:43:30;10.70;99.90
20233;DHT22;37438;55.674;13.074;2022-09-19T19:46:36;10.70;99.90
20233;DHT22;37438;55.674;13.074;2022-09-19T19:49:41;10.70;99.90
20233;DHT22;37438;55.674;13.074;2022-09-19T19:52:45;10.60;99.90
20233;DHT22;37438;55.674;13.074;2022-09-19T19:55:55;10.60;99.90
20233;DHT22;37438;55.674;13.074;2022-09-19T19:59:00;10.60;99.90
20233;DHT22;37438;55.674;13.074;2022-09-19T20:02:05;10.60;99.90
20233;DHT22;37438;55.674;13.074;2022-09-19T20:05:09;10.50;99.90
20233;DHT22;37438;55.674;13.074;2022-09-19T20:08:14;10.50;99.90
20233;DHT22;37438;55.674;13.074;2022-09-19T20:11:19;10.40;99.90
20233;DHT22;37438;55.674;13.074;2022-09-19T20:14:23;10.40;99.90
20233;DHT22;37438;55.674;13.074;2022-09-19T20:17:28;10.40;99.90
20233;DHT22;37438;55.674;13.074;2022-09-19T20:20:35;10.30;99.90
20233;DHT22;37438;55.674;13.074;2022-09-19T20:23:40;10.20;99.90
20233;DHT22;37438;55.674;13.074;2022-09-19T20:26:46;10.20;99.90
20233;DHT22;37438;55.674;13.074;2022-09-19T20:29:50;10.20;99.90
20233;DHT22;37438;55.674;13.074;2022-09-19T20:32:55;10.20;99.90
20233;DHT22;37438;55.674;13.074;2022-09-19T20:35:59;10.20;99.90
20233;DHT22;37438;55.674;13.074;2022-09-19T20:39:08;10.10;99.90
20233;DHT22;37438;55.674;13.074;2022-09-19T20:42:12;10.10;99.90
20233;DHT22;37438;55.674;13.074;2022-09-19T20:45:21;10.10;99.90
20233;DHT22;37438;55.674;13.074;2022-09-19T20:48:28;10.00;99.90
20233;DHT22;37438;55.674;13.074;2022-09-19T20:51:35;10.00;99.90
20233;DHT22;37438;55.674;13.074;2022-09-19T20:54:41;10.00;99.90
20233;DHT22;37438;55.674;13.074;2022-09-19T20:57:45;9.90;99.90
20233;DHT22;37438;55.674;13.074;2022-09-19T21:01:03;9.90;99.90
20233;DHT22;37438;55.674;13.074;2022-09-19T21:04:09;9.90;99.90
20233;DHT22;37438;55.674;13.074;2022-09-19T21:07:14;9.90;99.90
20233;DHT22;37438;55.674;13.074;2022-09-19T21:10:20;9.90;99.90
20233;DHT22;37438;55.674;13.074;2022-09-19T21:13:31;9.90;99.90
20233;DHT22;37438;55.674;13.074;2022-09-19T21:16:36;9.90;99.90
20233;DHT22;37438;55.674;13.074;2022-09-19T21:19:43;9.90;99.90
20233;DHT22;37438;55.674;13.074;2022-09-19T21:22:47;9.90;99.90
20233;DHT22;37438;55.674;13.074;2022-09-19T21:26:03;10.00;99.90
20233;DHT22;37438;55.674;13.074;2022-09-19T21:29:09;10.00;99.90
20233;DHT22;37438;55.674;13.074;2022-09-19T21:32:14;10.00;99.90
20233;DHT22;37438;55.674;13.074;2022-09-19T21:35:18;10.00;99.90
20233;DHT22;37438;55.674;13.074;2022-09-19T21:38:23;10.00;99.90
20233;DHT22;37438;55.674;13.074;2022-09-19T21:41:30;9.90;99.90
20233;DHT22;37438;55.674;13.074;2022-09-19T21:44:35;9.90;99.90
20233;DHT22;37438;55.674;13.074;2022-09-19T21:47:39;9.90;99.90
20233;DHT22;37438;55.674;13.074;2022-09-19T21:50:50;9.80;99.90
20233;DHT22;37438;55.674;13.074;2022-09-19T21:53:59;9.80;99.90
20233;DHT22;37438;55.674;13.074;2022-09-19T21:57:03;9.70;99.90
20233;DHT22;37438;55.674;13.074;2022-09-19T22:00:10;9.70;99.90
20233;DHT22;37438;55.674;13.074;2022-09-19T22:03:17;9.60;99.90
20233;DHT22;37438;55.674;13.074;2022-09-19T22:06:22;9.60;99.90
20233;DHT22;37438;55.674;13.074;2022-09-19T22:09:27;9.60;99.90